sensor_id;sensor_type;location;lat;lon;timestamp;temperature;humidity
17659;DHT22;8948;51.534;8.262;2024-02-14T00:04:06;8.50;66.80
17659;DHT22;8948;51.534;8.262;2024-02-14T00:09:07;8.50;67.20
17659;DHT22;8948;51.534;8.262;2024-02-14T00:14:08;8.50;67.20
17659;DHT22;8948;51.534;8.262;2024-02-14T00:19:09;8.50;67.40
17659;DHT22;8948;51.534;8.262;2024-02-14T00:24:09;8.50;67.70
17659;DHT22;8948;51.534;8.262;2024-02-14T00:29:10;8.50;67.80
17659;DHT22;8948;51.534;8.262;2024-02-14T00:34:10;8.50;68.00
17659;DHT22;8948;51.534;8.262;2024-02-14T00:39:11;8.50;67.80
17659;DHT22;8948;51.534;8.262;2024-02-14T00:44:11;8.50;68.10
17659;DHT22;8948;51.534;8.262;2024-02-14T00:49:12;8.60;68.30
17659;DHT22;8948;51.534;8.262;2024-02-14T00:54:13;8.50;68.70
17659;DHT22;8948;51.534;8.262;2024-02-14T00:59:14;8.50;68.70
17659;DHT22;8948;51.534;8.262;2024-02-14T01:04:14;8.60;68.70
17659;DHT22;8948;51.534;8.262;2024-02-14T01:09:15;8.60;69.20
17659;DHT22;8948;51.534;8.262;2024-02-14T01:14:17;8.60;69.40
17659;DHT22;8948;51.534;8.262;2024-02-14T01:19:17;8.60;69.60
17659;DHT22;8948;51.534;8.262;2024-02-14T01:24:19;8.60;69.70
17659;DHT22;8948;51.534;8.262;2024-02-14T01:29:20;8.60;70.50
17659;DHT22;8948;51.534;8.262;2024-02-14T01:34:21;8.60;70.10
17659;DHT22;8948;51.534;8.262;2024-02-14T01:39:21;8.60;69.90
17659;DHT22;8948;51.534;8.262;2024-02-14T01:44:22;8.60;70.00
17659;DHT22;8948;51.534;8.262;2024-02-14T01:49:23;8.60;70.00
17659;DHT22;8948;51.534;8.262;2024-02-14T01:54:24;8.50;71.90
17659;DHT22;8948;51.534;8.262;2024-02-14T01:59:26;8.50;71.60
17659;DHT22;8948;51.534;8.262;2024-02-14T02:04:27;8.50;71.90
17659;DHT22;8948;51.534;8.262;2024-02-14T02:09:27;8.50;72.00
17659;DHT22;8948;51.534;8.262;2024-02-14T02:14:28;8.50;72.20
17659;DHT22;8948;51.534;8.262;2024-02-14T02:19:29;8.50;71.70
17659;DHT22;8948;51.534;8.262;2024-02-14T02:24:30;8.50;71.80
17659;DHT22;8948;51.534;8.262;2024-02-14T02:29:31;8.50;71.60
17659;DHT22;8948;51.534;8.262;2024-02-14T02:34:32;8.40;72.00
17659;DHT22;8948;51.534;8.262;2024-02-14T02:39:33;8.50;71.70
17659;DHT22;8948;51.534;8.262;2024-02-14T02:44:38;8.50;71.60
17659;DHT22;8948;51.534;8.262;2024-02-14T02:49:39;8.50;71.60
17659;DHT22;8948;51.534;8.262;2024-02-14T02:54:41;8.60;71.50
17659;DHT22;8948;51.534;8.262;2024-02-14T02:59:44;8.60;71.60
17659;DHT22;8948;51.534;8.262;2024-02-14T03:04:45;8.70;71.60
17659;DHT22;8948;51.534;8.262;2024-02-14T03:09:47;8.70;72.00
17659;DHT22;8948;51.534;8.262;2024-02-14T03:14:47;8.80;72.30
17659;DHT22;8948;51.534;8.262;2024-02-14T03:19:48;8.80;72.20
17659;DHT22;8948;51.534;8.262;2024-02-14T03:24:52;8.70;72.70
17659;DHT22;8948;51.534;8.262;2024-02-14T03:29:52;8.80;72.60
17659;DHT22;8948;51.534;8.262;2024-02-14T03:34:55;8.80;72.80
17659;DHT22;8948;51.534;8.262;2024-02-14T03:39:56;8.80;73.00
17659;DHT22;8948;51.534;8.262;2024-02-14T03:44:57;8.80;72.70
17659;DHT22;8948;51.534;8.262;2024-02-14T03:50:03;8.80;72.90
17659;DHT22;8948;51.534;8.262;2024-02-14T03:55:05;8.80;73.20
17659;DHT22;8948;51.534;8.262;2024-02-14T04:00:06;8.80;73.40
17659;DHT22;8948;51.534;8.262;2024-02-14T04:05:10;8.80;73.40
17659;DHT22;8948;51.534;8.262;2024-02-14T04:10:11;8.80;73.60
17659;DHT22;8948;51.534;8.262;2024-02-14T04:15:11;8.80;73.90
17659;DHT22;8948;51.534;8.262;2024-02-14T04:20:12;8.80;74.00
17659;DHT22;8948;51.534;8.262;2024-02-14T04:25:13;8.80;74.20
17659;DHT22;8948;51.534;8.262;2024-02-14T04:30:14;8.90;74.30
17659;DHT22;8948;51.534;8.262;2024-02-14T04:35:14;8.90;74.40
17659;DHT22;8948;51.534;8.262;2024-02-14T04:40:15;8.90;75.10
17659;DHT22;8948;51.534;8.262;2024-02-14T04:45:16;8.80;75.80
17659;DHT22;8948;51.534;8.262;2024-02-14T04:50:16;8.80;76.20
17659;DHT22;8948;51.534;8.262;2024-02-14T04:55:17;8.90;75.20
17659;DHT22;8948;51.534;8.262;2024-02-14T05:00:18;8.90;75.80
17659;DHT22;8948;51.534;8.262;2024-02-14T05:05:19;8.90;75.20
17659;DHT22;8948;51.534;8.262;2024-02-14T05:10:20;8.90;75.80
17659;DHT22;8948;51.534;8.262;2024-02-14T05:15:21;8.90;75.60
17659;DHT22;8948;51.534;8.262;2024-02-14T05:20:22;9.00;75.20
17659;DHT22;8948;51.534;8.262;2024-02-14T05:25:22;9.10;75.30
17659;DHT22;8948;51.534;8.262;2024-02-14T05:30:23;9.10;75.20
17659;DHT22;8948;51.534;8.262;2024-02-14T05:35:23;9.10;75.80
17659;DHT22;8948;51.534;8.262;2024-02-14T05:40:24;9.10;75.50
17659;DHT22;8948;51.534;8.262;2024-02-14T05:45:24;9.10;76.00
17659;DHT22;8948;51.534;8.262;2024-02-14T05:50:25;9.10;76.50
17659;DHT22;8948;51.534;8.262;2024-02-14T05:55:26;9.00;77.30
17659;DHT22;8948;51.534;8.262;2024-02-14T06:00:26;9.00;77.90
17659;DHT22;8948;51.534;8.262;2024-02-14T06:05:27;8.90;78.20
17659;DHT22;8948;51.534;8.262;2024-02-14T06:10:27;8.90;78.80
17659;DHT22;8948;51.534;8.262;2024-02-14T06:15:28;8.90;78.20
17659;DHT22;8948;51.534;8.262;2024-02-14T06:20:28;9.00;78.70
17659;DHT22;8948;51.534;8.262;2024-02-14T06:25:29;9.00;78.70
17659;DHT22;8948;51.534;8.262;2024-02-14T06:30:29;9.00;78.30
17659;DHT22;8948;51.534;8.262;2024-02-14T06:35:30;9.00;78.40
17659;DHT22;8948;51.534;8.262;2024-02-14T06:40:31;9.10;78.50
17659;DHT22;8948;51.534;8.262;2024-02-14T06:45:32;9.10;78.70
17659;DHT22;8948;51.534;8.262;2024-02-14T06:50:32;9.10;78.70
17659;DHT22;8948;51.534;8.262;2024-02-14T06:55:33;9.10;78.60
17659;DHT22;8948;51.534;8.262;2024-02-14T07:00:34;9.10;79.20
17659;DHT22;8948;51.534;8.262;2024-02-14T07:05:34;9.10;78.90
17659;DHT22;8948;51.534;8.262;2024-02-14T07:10:35;9.20;79.00
17659;DHT22;8948;51.534;8.262;2024-02-14T07:15:35;9.20;79.60
17659;DHT22;8948;51.534;8.262;2024-02-14T07:20:36;9.30;79.20
17659;DHT22;8948;51.534;8.262;2024-02-14T07:25:37;9.30;79.30
17659;DHT22;8948;51.534;8.262;2024-02-14T07:30:37;9.40;79.20
17659;DHT22;8948;51.534;8.262;2024-02-14T07:35:38;9.40;79.30
17659;DHT22;8948;51.534;8.262;2024-02-14T07:40:38;9.40;79.70
17659;DHT22;8948;51.534;8.262;2024-02-14T07:45:39;9.50;79.80
17659;DHT22;8948;51.534;8.262;2024-02-14T07:50:40;9.50;79.60
17659;DHT22;8948;51.534;8.262;2024-02-14T07:55:40;9.60;79.50
17659;DHT22;8948;51.534;8.262;2024-02-14T08:00:41;9.60;79.40
17659;DHT22;8948;51.534;8.262;2024-02-14T08:05:42;9.60;79.40
17659;DHT22;8948;51.534;8.262;2024-02-14T08:10:43;9.70;79.60
17659;DHT22;8948;51.534;8.262;2024-02-14T08:15:43;9.80;79.00
17659;DHT22;8948;51.534;8.262;2024-02-14T08:20:44;9.90;78.80
17659;DHT22;8948;51.534;8.262;2024-02-14T08:25:44;9.90;79.60
17659;DHT22;8948;51.534;8.262;2024-02-14T08:30:45;9.90;79.30
17659;DHT22;8948;51.534;8.262;2024-02-14T08:35:45;9.90;79.00
17659;DHT22;8948;51.534;8.262;2024-02-14T08:40:47;9.90;79.70
17659;DHT22;8948;51.534;8.262;2024-02-14T08:45:48;10.00;79.00
17659;DHT22;8948;51.534;8.262;2024-02-14T08:50:48;10.10;78.70
17659;DHT22;8948;51.534;8.262;2024-02-14T08:55:49;10.30;78.60
17659;DHT22;8948;51.534;8.262;2024-02-14T09:00:49;10.50;78.00
17659;DHT22;8948;51.534;8.262;2024-02-14T09:05:50;10.60;77.20
17659;DHT22;8948;51.534;8.262;2024-02-14T09:10:51;10.50;77.40
17659;DHT22;8948;51.534;8.262;2024-02-14T09:15:52;10.50;77.40
17659;DHT22;8948;51.534;8.262;2024-02-14T09:20:53;10.60;77.70
17659;DHT22;8948;51.534;8.262;2024-02-14T09:25:53;10.90;77.00
17659;DHT22;8948;51.534;8.262;2024-02-14T09:30:55;11.50;76.10
17659;DHT22;8948;51.534;8.262;2024-02-14T09:35:56;11.80;75.20
17659;DHT22;8948;51.534;8.262;2024-02-14T09:41:10;11.90;74.10
17659;DHT22;8948;51.534;8.262;2024-02-14T09:46:13;11.80;74.30
17659;DHT22;8948;51.534;8.262;2024-02-14T09:51:14;12.00;73.60
17659;DHT22;8948;51.534;8.262;2024-02-14T09:56:15;11.80;74.20
17659;DHT22;8948;51.534;8.262;2024-02-14T10:01:19;12.10;73.60
17659;DHT22;8948;51.534;8.262;2024-02-14T10:12:20;12.70;71.90
17659;DHT22;8948;51.534;8.262;2024-02-14T10:17:20;13.00;71.20
17659;DHT22;8948;51.534;8.262;2024-02-14T10:22:21;12.80;72.10
17659;DHT22;8948;51.534;8.262;2024-02-14T10:27:21;12.80;71.80
17659;DHT22;8948;51.534;8.262;2024-02-14T10:32:22;12.60;72.40
17659;DHT22;8948;51.534;8.262;2024-02-14T10:37:24;12.40;72.60
17659;DHT22;8948;51.534;8.262;2024-02-14T10:42:25;12.20;73.20
17659;DHT22;8948;51.534;8.262;2024-02-14T10:47:36;12.20;73.30
17659;DHT22;8948;51.534;8.262;2024-02-14T10:52:41;12.30;73.50
17659;DHT22;8948;51.534;8.262;2024-02-14T10:57:43;12.40;73.60
17659;DHT22;8948;51.534;8.262;2024-02-14T11:02:46;12.30;72.80
17659;DHT22;8948;51.534;8.262;2024-02-14T11:07:47;12.20;74.00
17659;DHT22;8948;51.534;8.262;2024-02-14T11:12:50;12.10;74.40
17659;DHT22;8948;51.534;8.262;2024-02-14T11:17:51;12.00;75.10
17659;DHT22;8948;51.534;8.262;2024-02-14T11:22:56;11.90;75.90
17659;DHT22;8948;51.534;8.262;2024-02-14T11:27:58;12.00;75.60
17659;DHT22;8948;51.534;8.262;2024-02-14T11:33:18;12.10;74.60
17659;DHT22;8948;51.534;8.262;2024-02-14T11:38:20;12.10;76.50
17659;DHT22;8948;51.534;8.262;2024-02-14T11:43:21;12.10;76.70
17659;DHT22;8948;51.534;8.262;2024-02-14T11:48:22;12.50;76.10
17659;DHT22;8948;51.534;8.262;2024-02-14T11:53:25;12.80;74.00
17659;DHT22;8948;51.534;8.262;2024-02-14T11:58:26;13.00;73.00
17659;DHT22;8948;51.534;8.262;2024-02-14T12:03:26;12.90;73.30
17659;DHT22;8948;51.534;8.262;2024-02-14T12:08:28;12.90;73.50
17659;DHT22;8948;51.534;8.262;2024-02-14T12:13:30;12.80;74.40
17659;DHT22;8948;51.534;8.262;2024-02-14T12:18:32;12.90;74.20
17659;DHT22;8948;51.534;8.262;2024-02-14T12:23:34;12.90;74.10
17659;DHT22;8948;51.534;8.262;2024-02-14T12:28:36;12.70;75.70
17659;DHT22;8948;51.534;8.262;2024-02-14T12:33:38;12.70;76.20
17659;DHT22;8948;51.534;8.262;2024-02-14T12:38:39;12.70;75.80
17659;DHT22;8948;51.534;8.262;2024-02-14T12:43:40;12.80;75.60
17659;DHT22;8948;51.534;8.262;2024-02-14T12:48:40;13.30;75.00
17659;DHT22;8948;51.534;8.262;2024-02-14T12:53:41;13.40;73.30
17659;DHT22;8948;51.534;8.262;2024-02-14T12:58:41;13.50;73.80
17659;DHT22;8948;51.534;8.262;2024-02-14T13:03:43;13.50;73.40
17659;DHT22;8948;51.534;8.262;2024-02-14T13:08:43;13.50;73.40
17659;DHT22;8948;51.534;8.262;2024-02-14T13:13:44;13.40;73.60
17659;DHT22;8948;51.534;8.262;2024-02-14T13:18:44;13.60;73.10
17659;DHT22;8948;51.534;8.262;2024-02-14T13:23:45;13.70;72.30
17659;DHT22;8948;51.534;8.262;2024-02-14T13:28:45;13.80;72.30
17659;DHT22;8948;51.534;8.262;2024-02-14T13:33:46;13.60;71.80
17659;DHT22;8948;51.534;8.262;2024-02-14T13:38:46;13.50;72.90
17659;DHT22;8948;51.534;8.262;2024-02-14T13:43:47;13.30;73.00
17659;DHT22;8948;51.534;8.262;2024-02-14T13:48:48;13.20;72.80
17659;DHT22;8948;51.534;8.262;2024-02-14T13:53:49;13.20;73.70
17659;DHT22;8948;51.534;8.262;2024-02-14T13:58:49;13.20;73.40
17659;DHT22;8948;51.534;8.262;2024-02-14T14:03:50;13.20;73.70
17659;DHT22;8948;51.534;8.262;2024-02-14T14:08:51;13.30;74.30
17659;DHT22;8948;51.534;8.262;2024-02-14T14:13:51;13.30;73.80
17659;DHT22;8948;51.534;8.262;2024-02-14T14:18:52;13.40;73.40
17659;DHT22;8948;51.534;8.262;2024-02-14T14:23:52;13.40;73.30
17659;DHT22;8948;51.534;8.262;2024-02-14T14:28:53;13.30;72.80
17659;DHT22;8948;51.534;8.262;2024-02-14T14:33:54;13.10;73.70
17659;DHT22;8948;51.534;8.262;2024-02-14T14:38:55;13.00;74.60
17659;DHT22;8948;51.534;8.262;2024-02-14T14:43:56;12.90;74.80
17659;DHT22;8948;51.534;8.262;2024-02-14T14:48:56;13.00;74.30
17659;DHT22;8948;51.534;8.262;2024-02-14T14:53:57;13.00;73.80
17659;DHT22;8948;51.534;8.262;2024-02-14T14:58:57;13.00;73.20
17659;DHT22;8948;51.534;8.262;2024-02-14T15:04:00;13.00;73.20
17659;DHT22;8948;51.534;8.262;2024-02-14T15:09:00;13.00;73.00
17659;DHT22;8948;51.534;8.262;2024-02-14T15:14:01;12.90;73.80
17659;DHT22;8948;51.534;8.262;2024-02-14T15:19:02;12.80;74.60
17659;DHT22;8948;51.534;8.262;2024-02-14T15:24:02;12.80;74.30
17659;DHT22;8948;51.534;8.262;2024-02-14T15:29:04;12.60;75.30
17659;DHT22;8948;51.534;8.262;2024-02-14T15:34:25;12.60;75.20
17659;DHT22;8948;51.534;8.262;2024-02-14T15:39:25;12.50;75.10
17659;DHT22;8948;51.534;8.262;2024-02-14T15:44:26;12.50;75.70
17659;DHT22;8948;51.534;8.262;2024-02-14T15:49:26;12.50;76.20
17659;DHT22;8948;51.534;8.262;2024-02-14T15:54:27;12.40;76.60
17659;DHT22;8948;51.534;8.262;2024-02-14T15:59:28;12.40;76.80
17659;DHT22;8948;51.534;8.262;2024-02-14T16:04:30;12.40;76.10
17659;DHT22;8948;51.534;8.262;2024-02-14T16:09:30;12.30;76.80
17659;DHT22;8948;51.534;8.262;2024-02-14T16:14:31;12.20;77.20
17659;DHT22;8948;51.534;8.262;2024-02-14T16:19:32;12.20;77.70
17659;DHT22;8948;51.534;8.262;2024-02-14T16:24:33;12.10;77.60
17659;DHT22;8948;51.534;8.262;2024-02-14T16:29:33;12.10;78.20
17659;DHT22;8948;51.534;8.262;2024-02-14T16:34:38;12.10;78.20
17659;DHT22;8948;51.534;8.262;2024-02-14T16:39:38;12.10;78.10
17659;DHT22;8948;51.534;8.262;2024-02-14T16:44:39;12.00;77.90
17659;DHT22;8948;51.534;8.262;2024-02-14T16:49:40;12.00;78.30
17659;DHT22;8948;51.534;8.262;2024-02-14T16:54:40;11.90;78.80
17659;DHT22;8948;51.534;8.262;2024-02-14T16:59:41;12.00;78.90
17659;DHT22;8948;51.534;8.262;2024-02-14T17:04:45;11.90;79.80
17659;DHT22;8948;51.534;8.262;2024-02-14T17:09:46;11.80;79.70
17659;DHT22;8948;51.534;8.262;2024-02-14T17:14:46;11.80;79.80
17659;DHT22;8948;51.534;8.262;2024-02-14T17:19:47;11.80;80.20
17659;DHT22;8948;51.534;8.262;2024-02-14T17:24:47;11.80;80.10
17659;DHT22;8948;51.534;8.262;2024-02-14T17:29:49;11.80;79.70
17659;DHT22;8948;51.534;8.262;2024-02-14T17:34:49;11.80;79.70
17659;DHT22;8948;51.534;8.262;2024-02-14T17:39:50;11.80;79.30
17659;DHT22;8948;51.534;8.262;2024-02-14T17:44:50;11.90;79.40
17659;DHT22;8948;51.534;8.262;2024-02-14T17:49:51;11.90;79.10
17659;DHT22;8948;51.534;8.262;2024-02-14T17:54:54;11.90;78.90
17659;DHT22;8948;51.534;8.262;2024-02-14T17:59:58;11.90;78.80
17659;DHT22;8948;51.534;8.262;2024-02-14T18:04:59;12.00;79.10
17659;DHT22;8948;51.534;8.262;2024-02-14T18:09:59;12.00;78.80
17659;DHT22;8948;51.534;8.262;2024-02-14T18:15:00;11.90;79.00
17659;DHT22;8948;51.534;8.262;2024-02-14T18:20:01;11.90;79.50
17659;DHT22;8948;51.534;8.262;2024-02-14T18:25:02;11.90;79.90
17659;DHT22;8948;51.534;8.262;2024-02-14T18:30:03;11.90;79.60
17659;DHT22;8948;51.534;8.262;2024-02-14T18:35:04;11.90;80.00
17659;DHT22;8948;51.534;8.262;2024-02-14T18:40:05;11.90;79.70
17659;DHT22;8948;51.534;8.262;2024-02-14T18:45:06;11.80;79.70
17659;DHT22;8948;51.534;8.262;2024-02-14T18:50:10;11.80;80.50
17659;DHT22;8948;51.534;8.262;2024-02-14T18:55:11;11.80;80.10
17659;DHT22;8948;51.534;8.262;2024-02-14T19:00:12;11.80;80.30
17659;DHT22;8948;51.534;8.262;2024-02-14T19:05:13;11.90;80.50
17659;DHT22;8948;51.534;8.262;2024-02-14T19:10:15;11.90;80.60
17659;DHT22;8948;51.534;8.262;2024-02-14T19:15:16;11.90;80.60
17659;DHT22;8948;51.534;8.262;2024-02-14T19:20:16;11.90;80.90
17659;DHT22;8948;51.534;8.262;2024-02-14T19:25:17;11.90;81.10
17659;DHT22;8948;51.534;8.262;2024-02-14T19:30:17;11.90;80.70
17659;DHT22;8948;51.534;8.262;2024-02-14T19:35:18;11.90;81.30
17659;DHT22;8948;51.534;8.262;2024-02-14T19:40:19;11.90;81.40
17659;DHT22;8948;51.534;8.262;2024-02-14T19:45:19;11.90;80.80
17659;DHT22;8948;51.534;8.262;2024-02-14T19:50:20;12.00;80.70
17659;DHT22;8948;51.534;8.262;2024-02-14T19:55:21;12.00;80.80
17659;DHT22;8948;51.534;8.262;2024-02-14T20:00:22;12.00;80.50
17659;DHT22;8948;51.534;8.262;2024-02-14T20:05:23;11.90;81.10
17659;DHT22;8948;51.534;8.262;2024-02-14T20:10:25;12.00;81.00
17659;DHT22;8948;51.534;8.262;2024-02-14T20:15:26;12.00;81.40
17659;DHT22;8948;51.534;8.262;2024-02-14T20:20:26;12.00;80.80
17659;DHT22;8948;51.534;8.262;2024-02-14T20:25:27;12.00;81.10
17659;DHT22;8948;51.534;8.262;2024-02-14T20:30:27;12.00;81.30
17659;DHT22;8948;51.534;8.262;2024-02-14T20:35:28;12.00;81.20
17659;DHT22;8948;51.534;8.262;2024-02-14T20:40:29;12.00;81.30
17659;DHT22;8948;51.534;8.262;2024-02-14T20:45:31;12.00;80.80
17659;DHT22;8948;51.534;8.262;2024-02-14T20:50:32;12.00;81.20
17659;DHT22;8948;51.534;8.262;2024-02-14T20:55:34;12.00;81.10
17659;DHT22;8948;51.534;8.262;2024-02-14T21:00:35;12.00;81.30
17659;DHT22;8948;51.534;8.262;2024-02-14T21:05:36;12.00;81.30
17659;DHT22;8948;51.534;8.262;2024-02-14T21:10:36;12.00;81.10
17659;DHT22;8948;51.534;8.262;2024-02-14T21:15:37;12.00;81.10
17659;DHT22;8948;51.534;8.262;2024-02-14T21:20:39;12.00;81.20
17659;DHT22;8948;51.534;8.262;2024-02-14T21:25:39;12.10;80.90
17659;DHT22;8948;51.534;8.262;2024-02-14T21:30:40;12.10;80.80
17659;DHT22;8948;51.534;8.262;2024-02-14T21:35:40;12.10;81.00
17659;DHT22;8948;51.534;8.262;2024-02-14T21:40:42;12.00;81.30
17659;DHT22;8948;51.534;8.262;2024-02-14T21:45:42;12.00;81.40
17659;DHT22;8948;51.534;8.262;2024-02-14T21:50:43;12.10;81.10
17659;DHT22;8948;51.534;8.262;2024-02-14T21:55:44;12.10;81.10
17659;DHT22;8948;51.534;8.262;2024-02-14T22:00:44;12.00;81.80
17659;DHT22;8948;51.534;8.262;2024-02-14T22:05:45;12.10;81.40
17659;DHT22;8948;51.534;8.262;2024-02-14T22:10:45;12.10;81.30
17659;DHT22;8948;51.534;8.262;2024-02-14T22:15:46;12.10;81.60
17659;DHT22;8948;51.534;8.262;2024-02-14T22:20:47;12.10;81.40
17659;DHT22;8948;51.534;8.262;2024-02-14T22:25:50;12.10;81.70
17659;DHT22;8948;51.534;8.262;2024-02-14T22:30:51;12.10;82.20
17659;DHT22;8948;51.534;8.262;2024-02-14T22:35:51;12.10;82.20
17659;DHT22;8948;51.534;8.262;2024-02-14T22:40:52;12.10;81.90
17659;DHT22;8948;51.534;8.262;2024-02-14T22:45:52;12.10;82.20
17659;DHT22;8948;51.534;8.262;2024-02-14T22:50:53;12.10;82.80
17659;DHT22;8948;51.534;8.262;2024-02-14T22:55:54;12.00;82.50
17659;DHT22;8948;51.534;8.262;2024-02-14T23:00:54;12.00;83.10
17659;DHT22;8948;51.534;8.262;2024-02-14T23:05:55;12.00;82.90
17659;DHT22;8948;51.534;8.262;2024-02-14T23:10:55;12.00;82.60
17659;DHT22;8948;51.534;8.262;2024-02-14T23:15:56;12.00;83.10
17659;DHT22;8948;51.534;8.262;2024-02-14T23:20:58;12.00;82.70
17659;DHT22;8948;51.534;8.262;2024-02-14T23:25:58;12.00;82.60
17659;DHT22;8948;51.534;8.262;2024-02-14T23:30:59;12.00;83.00
17659;DHT22;8948;51.534;8.262;2024-02-14T23:36:00;11.90;82.80
17659;DHT22;8948;51.534;8.262;2024-02-14T23:41:01;12.00;82.80
17659;DHT22;8948;51.534;8.262;2024-02-14T23:46:02;12.00;82.90
17659;DHT22;8948;51.534;8.262;2024-02-14T23:51:05;12.00;82.60
17659;DHT22;8948;51.534;8.262;2024-02-14T23:56:06;11.90;83.10
